createdAt,value
2023-04-09T00:02:53.607Z,70.48
2023-04-09T00:11:16.686Z,70.63
2023-04-09T00:19:39.559Z,70.72
2023-04-09T00:28:02.465Z,70.60
2023-04-09T00:36:27.081Z,70.60
2023-04-09T00:44:50.302Z,70.53
2023-04-09T00:53:14.916Z,70.71
2023-04-09T01:01:38.001Z,70.65
2023-04-09T01:10:28.352Z,70.86
2023-04-09T01:18:55.655Z,70.81
2023-04-09T01:27:20.136Z,70.78
2023-04-09T01:35:54.086Z,70.95
2023-04-09T01:44:19.394Z,70.95
2023-04-09T01:52:42.674Z,71.12
2023-04-09T02:01:12.175Z,70.99
2023-04-09T02:09:39.336Z,70.95
2023-04-09T02:18:02.364Z,71.19
2023-04-09T02:26:25.724Z,71.21
2023-04-09T02:34:48.593Z,71.06
2023-04-09T02:43:11.474Z,71.26
2023-04-09T02:51:36.104Z,71.24
2023-04-09T02:59:59.454Z,71.39
2023-04-09T03:08:22.553Z,71.06
2023-04-09T03:16:45.528Z,71.27
2023-04-09T03:25:09.156Z,71.30
2023-04-09T03:33:32.721Z,71.28
2023-04-09T03:41:58.125Z,71.47
2023-04-09T03:50:26.133Z,71.43
2023-04-09T03:58:51.750Z,71.57
2023-04-09T04:07:16.841Z,71.32
2023-04-09T04:15:47.710Z,71.53
2023-04-09T04:24:11.868Z,71.53
2023-04-09T04:32:35.909Z,71.47
2023-04-09T04:41:03.131Z,71.58
2023-04-09T04:49:27.784Z,71.64
2023-04-09T04:57:52.633Z,71.58
2023-04-09T05:06:17.724Z,71.43
2023-04-09T05:14:41.545Z,71.78
2023-04-09T05:23:05.173Z,71.99
2023-04-09T05:31:32.574Z,71.90
2023-04-09T05:40:02.130Z,71.90
2023-04-09T05:48:27.483Z,72.39
2023-04-09T05:56:52.362Z,72.27
2023-04-09T06:05:16.106Z,72.28
2023-04-09T06:13:39.748Z,72.20
2023-04-09T06:22:02.767Z,72.44
2023-04-09T06:30:25.939Z,72.49
2023-04-09T06:38:48.888Z,72.74
2023-04-09T06:47:11.800Z,72.67
2023-04-09T06:55:34.735Z,72.85
2023-04-09T07:03:58.215Z,72.94
2023-04-09T07:12:31.671Z,73.24
2023-04-09T07:20:55.379Z,73.51
2023-04-09T07:29:20.765Z,73.46
2023-04-09T07:37:44.328Z,73.62
2023-04-09T07:46:07.232Z,73.67
2023-04-09T07:54:31.649Z,73.62
2023-04-09T08:02:54.861Z,73.59
2023-04-09T08:11:22.369Z,73.49
2023-04-09T08:19:45.347Z,73.69
2023-04-09T08:28:08.552Z,73.55
2023-04-09T08:36:32.602Z,73.56
2023-04-09T08:44:55.670Z,73.55
2023-04-09T08:53:19.470Z,73.51
2023-04-09T09:01:42.460Z,73.33
2023-04-09T09:10:07.382Z,73.22
2023-04-09T09:18:41.764Z,73.14
2023-04-09T09:27:04.875Z,72.99
2023-04-09T09:35:27.902Z,72.80
2023-04-09T09:43:51.883Z,72.80
2023-04-09T09:52:16.017Z,72.79
2023-04-09T10:00:41.157Z,72.63
2023-04-09T10:09:06.389Z,72.58
2023-04-09T10:17:29.315Z,72.64
2023-04-09T10:25:53.844Z,72.65
2023-04-09T10:34:21.472Z,72.53
2023-04-09T10:42:47.710Z,72.38
2023-04-09T10:51:19.525Z,72.34
2023-04-09T10:59:54.111Z,72.29
2023-04-09T11:08:17.274Z,72.09
2023-04-09T11:16:40.718Z,72.23
2023-04-09T11:25:04.184Z,72.06
2023-04-09T11:33:34.563Z,72.24
2023-04-09T11:41:58.114Z,72.16
2023-04-09T11:50:21.876Z,72.05
2023-04-09T11:58:49.198Z,71.95
2023-04-09T12:07:12.789Z,71.71
2023-04-09T12:15:38.029Z,71.76
2023-04-09T12:24:01.440Z,71.55
2023-04-09T12:32:24.714Z,71.63
2023-04-09T12:40:47.643Z,71.69
2023-04-09T12:49:10.942Z,71.55
2023-04-09T12:57:34.672Z,71.33
2023-04-09T13:05:57.781Z,71.35
2023-04-09T13:14:20.867Z,71.12
2023-04-09T13:22:48.725Z,71.29
2023-04-09T13:31:11.753Z,71.22
2023-04-09T13:39:35.152Z,71.18
2023-04-09T13:47:59.522Z,71.11
2023-04-09T13:56:23.444Z,71.29
2023-04-09T14:04:46.505Z,71.30
2023-04-09T14:13:12.355Z,71.13
2023-04-09T14:21:35.758Z,71.08
2023-04-09T14:29:58.854Z,71.08
2023-04-09T14:38:24.145Z,70.99
2023-04-09T14:46:47.471Z,70.95
2023-04-09T14:55:12.713Z,70.81
2023-04-09T15:03:35.973Z,70.76
2023-04-09T15:11:59.165Z,70.67
2023-04-09T15:20:22.367Z,70.65
2023-04-09T15:28:46.453Z,70.43
2023-04-09T15:37:09.572Z,70.58
2023-04-09T15:45:32.551Z,70.60
2023-04-09T15:53:55.433Z,70.39
2023-04-09T16:02:20.088Z,70.27
2023-04-09T16:10:43.399Z,70.29
2023-04-09T16:19:06.275Z,70.25
2023-04-09T16:27:29.287Z,70.18
2023-04-09T16:35:52.185Z,70.23
2023-04-09T16:44:15.582Z,70.11
2023-04-09T16:52:39.601Z,70.05
2023-04-09T17:01:02.813Z,70.01
2023-04-09T17:09:26.440Z,69.97
2023-04-09T17:17:53.736Z,69.95
2023-04-09T17:35:31.755Z,69.87
2023-04-09T17:43:55.081Z,69.84
2023-04-09T17:52:18.012Z,69.76
2023-04-09T18:00:43.498Z,69.74
2023-04-09T18:09:07.686Z,69.75
2023-04-09T18:17:32.601Z,69.57
2023-04-09T18:25:55.995Z,69.59
2023-04-09T18:34:20.517Z,69.70
2023-04-09T18:42:44.997Z,69.64
2023-04-09T18:51:08.041Z,69.37
2023-04-09T18:59:33.765Z,69.34
2023-04-09T19:08:05.418Z,69.46
2023-04-09T19:16:28.835Z,69.32
2023-04-09T19:24:51.795Z,69.24
2023-04-09T19:33:14.697Z,69.29
2023-04-09T19:41:37.853Z,69.39
2023-04-09T19:50:00.980Z,69.41
2023-04-09T19:58:24.537Z,69.43
2023-04-09T20:06:49.290Z,69.28
2023-04-09T20:15:12.485Z,69.53
2023-04-09T20:23:36.436Z,69.58
2023-04-09T20:31:59.529Z,69.67
2023-04-09T20:40:24.903Z,69.49
2023-04-09T20:48:47.823Z,69.56
2023-04-09T20:57:13.229Z,69.54
2023-04-09T21:05:37.120Z,69.44
2023-04-09T21:14:00.206Z,69.57
2023-04-09T21:22:24.579Z,69.73
2023-04-09T21:30:47.900Z,69.57
2023-04-09T21:39:11.684Z,69.59
2023-04-09T21:47:34.710Z,69.57
2023-04-09T21:55:57.859Z,69.58
2023-04-09T22:04:21.575Z,69.59
2023-04-09T22:12:44.707Z,69.45
2023-04-09T22:21:07.714Z,69.36
2023-04-09T22:29:31.593Z,69.39
2023-04-09T22:37:54.742Z,69.37
2023-04-09T22:46:18.149Z,69.29
2023-04-09T22:54:43.464Z,69.34
2023-04-09T23:03:06.746Z,69.35
2023-04-09T23:11:31.169Z,69.23
2023-04-09T23:19:54.381Z,69.24
2023-04-09T23:28:17.627Z,69.20
2023-04-09T23:36:41.195Z,69.32
2023-04-09T23:45:05.817Z,69.27
2023-04-09T23:53:28.866Z,69.26
